Universal, Indiana
Current Conditions -  °F | °C
As of 9:35 AM on Monday 20 Oct 2014 (Local Time) from KPRG Reporting Station
Broken Clouds Broken Clouds  
Wind Chill: 53°   Ceiling: 11000
Heat Index: 53°   Visibility: 10mi
Dew Point: 49°   Wind: 9mph
Humidity: 86%   Direction: 210°SSW
Pressure: 29.93"   Gusts: NA
Location:  39.62°N, 87.45°W
Report Text: KPRG 201335Z AUTO 21008KT 10SM BKN110 12/09 A2993 RMK AO2 T01170094
Loading
Personal Weather Stations






























Interactive Weather Map
Tropical Storm Tracking
New forecast layout! Learn more

10-Day Weather Forecast

Advertisements
Track Severe Weather on mobile